createdAt,value
2019-01-12T00:01:35.567Z,7.10
2019-01-12T00:04:06.916Z,6.90
2019-01-12T00:06:38.089Z,6.97
2019-01-12T00:09:12.522Z,8.50
2019-01-12T00:11:43.708Z,6.47
2019-01-12T00:14:16.934Z,6.60
2019-01-12T00:16:48.191Z,7.03
2019-01-12T00:19:25.366Z,5.60
2019-01-12T00:21:56.719Z,6.87
2019-01-12T00:24:31.489Z,6.00
2019-01-12T00:27:00.867Z,5.33
2019-01-12T00:29:32.032Z,6.00
2019-01-12T00:32:03.329Z,6.10
2019-01-12T00:34:34.622Z,8.00
2019-01-12T00:37:05.932Z,6.67
2019-01-12T00:39:37.068Z,5.87
2019-01-12T00:42:08.341Z,5.83
2019-01-12T00:44:39.602Z,6.87
2019-01-12T00:47:12.987Z,7.50
2019-01-12T00:49:43.972Z,7.00
2019-01-12T00:52:15.217Z,6.20
2019-01-12T00:54:46.477Z,5.90
2019-01-12T00:57:17.773Z,6.80
2019-01-12T00:59:49.067Z,6.60
2019-01-12T01:02:20.394Z,7.10
2019-01-12T01:04:51.641Z,7.23
2019-01-12T01:07:22.866Z,7.77
2019-01-12T01:09:54.064Z,7.13
2019-01-12T01:12:25.395Z,6.80
2019-01-12T01:14:56.713Z,7.40
2019-01-12T01:17:27.953Z,7.87
2019-01-12T01:19:59.169Z,8.57
2019-01-12T01:22:30.458Z,8.30
2019-01-12T01:25:01.674Z,10.00
2019-01-12T01:27:32.960Z,10.90
2019-01-12T01:30:05.492Z,8.80
2019-01-12T01:32:36.775Z,8.70
2019-01-12T01:35:08.399Z,9.63
2019-01-12T01:37:39.613Z,10.40
2019-01-12T01:40:15.221Z,9.10
2019-01-12T01:42:46.587Z,9.43
2019-01-12T01:45:19.175Z,8.40
2019-01-12T01:47:50.452Z,9.30
2019-01-12T01:50:21.686Z,8.93
2019-01-12T01:52:52.944Z,10.80
2019-01-12T01:55:24.205Z,10.63
2019-01-12T01:57:55.386Z,9.63
2019-01-12T02:00:26.700Z,9.83
2019-01-12T02:02:57.936Z,11.57
2019-01-12T02:05:29.179Z,12.27
2019-01-12T02:08:00.377Z,11.90
2019-01-12T02:10:31.623Z,11.90
2019-01-12T02:13:02.799Z,13.13
2019-01-12T02:15:34.041Z,12.73
2019-01-12T02:18:05.644Z,13.10
2019-01-12T02:20:36.831Z,11.77
2019-01-12T02:23:08.080Z,10.07
2019-01-12T02:25:39.314Z,10.37
2019-01-12T02:28:10.567Z,12.07
2019-01-12T02:30:41.872Z,12.53
2019-01-12T02:33:13.149Z,11.90
2019-01-12T02:35:44.415Z,10.40
2019-01-12T02:38:15.696Z,10.00
2019-01-12T02:40:46.964Z,9.20
2019-01-12T02:43:18.520Z,9.07
2019-01-12T02:45:49.890Z,9.40
2019-01-12T02:48:21.131Z,7.77
2019-01-12T02:50:52.390Z,9.03
2019-01-12T02:53:23.742Z,8.73
2019-01-12T02:55:54.914Z,8.97
2019-01-12T02:58:26.150Z,9.80
2019-01-12T03:00:57.328Z,11.27
2019-01-12T03:03:28.562Z,12.30
2019-01-12T03:05:59.834Z,11.70
2019-01-12T03:08:31.158Z,12.80
2019-01-12T03:11:02.449Z,12.60
2019-01-12T03:13:42.604Z,11.20
2019-01-12T03:16:13.993Z,11.47
2019-01-12T03:18:45.236Z,12.13
2019-01-12T03:21:16.526Z,13.17
2019-01-12T03:23:47.673Z,12.90
2019-01-12T03:26:18.871Z,12.47
2019-01-12T03:28:50.101Z,12.63
2019-01-12T03:31:21.416Z,11.23
2019-01-12T03:33:52.748Z,11.63
2019-01-12T03:36:24.122Z,10.80
2019-01-12T03:38:55.297Z,9.30
2019-01-12T03:41:26.604Z,11.33
2019-01-12T03:43:57.828Z,9.90
2019-01-12T03:46:29.086Z,9.30
2019-01-12T03:49:00.334Z,12.37
2019-01-12T03:51:31.585Z,9.83
2019-01-12T03:54:02.742Z,9.27
2019-01-12T03:56:33.940Z,8.93
2019-01-12T03:59:05.393Z,9.67
2019-01-12T04:01:36.618Z,7.97
2019-01-12T04:04:07.782Z,9.80
2019-01-12T04:06:39.033Z,9.53
2019-01-12T04:09:11.459Z,9.40
2019-01-12T04:11:42.691Z,10.70
2019-01-12T04:14:13.950Z,9.33
2019-01-12T04:16:45.245Z,9.80
2019-01-12T04:19:16.470Z,10.20
2019-01-12T04:21:47.726Z,9.43
2019-01-12T04:24:18.966Z,11.20
2019-01-12T04:26:50.154Z,10.50
2019-01-12T04:29:21.414Z,10.67
2019-01-12T04:31:52.647Z,11.10
2019-01-12T04:34:23.791Z,10.60
2019-01-12T04:36:54.984Z,11.77
2019-01-12T04:39:26.218Z,11.33
2019-01-12T04:41:57.512Z,11.40
2019-01-12T04:44:28.723Z,12.17
2019-01-12T04:46:59.989Z,10.70
2019-01-12T04:49:31.209Z,10.57
2019-01-12T04:52:02.438Z,9.77
2019-01-12T04:54:33.648Z,9.27
2019-01-12T04:57:04.969Z,9.50
2019-01-12T04:59:36.177Z,8.60
2019-01-12T05:02:07.461Z,9.00
2019-01-12T05:04:38.708Z,9.00
2019-01-12T05:07:09.998Z,9.10
2019-01-12T05:09:41.135Z,7.10
2019-01-12T05:12:12.411Z,6.73
2019-01-12T05:14:43.752Z,7.00
2019-01-12T05:17:15.058Z,6.60
2019-01-12T05:19:46.429Z,7.00
2019-01-12T05:22:17.624Z,7.70
2019-01-12T05:24:48.901Z,9.27
2019-01-12T05:27:20.178Z,10.23
2019-01-12T05:29:51.465Z,12.47
2019-01-12T05:32:41.687Z,12.30
2019-01-12T05:35:12.959Z,11.30
2019-01-12T05:37:44.210Z,10.97
2019-01-12T05:40:15.766Z,11.07
2019-01-12T05:42:47.019Z,10.97
2019-01-12T05:45:18.377Z,11.57
2019-01-12T05:47:49.632Z,11.27
2019-01-12T05:50:20.919Z,10.67
2019-01-12T05:52:52.189Z,11.13
2019-01-12T05:55:23.395Z,11.40
2019-01-12T05:57:54.592Z,11.57
2019-01-12T06:00:26.236Z,13.67
2019-01-12T06:02:57.508Z,12.13
2019-01-12T06:05:28.663Z,13.77
2019-01-12T06:07:59.925Z,13.50
2019-01-12T06:10:31.136Z,13.03
2019-01-12T06:13:02.423Z,12.50
2019-01-12T06:15:33.635Z,11.87
2019-01-12T06:18:04.924Z,11.87
2019-01-12T06:20:36.084Z,11.20
2019-01-12T06:23:07.362Z,12.30
2019-01-12T06:25:38.583Z,10.83
2019-01-12T06:28:09.875Z,10.90
2019-01-12T06:30:41.102Z,11.30
2019-01-12T06:33:12.350Z,10.87
2019-01-12T06:35:43.657Z,10.23
2019-01-12T06:38:14.889Z,9.77
2019-01-12T06:40:46.155Z,10.47
2019-01-12T06:43:17.399Z,10.23
2019-01-12T06:45:48.648Z,9.37
2019-01-12T06:48:19.887Z,9.60
2019-01-12T06:50:51.171Z,10.27
2019-01-12T06:53:22.301Z,12.13
2019-01-12T06:55:53.595Z,11.47
2019-01-12T06:58:24.827Z,10.47
2019-01-12T07:00:56.061Z,10.37
2019-01-12T07:03:27.181Z,10.50
2019-01-12T07:05:58.445Z,9.07
2019-01-12T07:08:29.605Z,9.20
2019-01-12T07:11:00.789Z,9.03
2019-01-12T07:13:32.017Z,10.80
2019-01-12T07:16:03.239Z,9.93
2019-01-12T07:18:34.477Z,9.93
2019-01-12T07:21:05.753Z,9.90
2019-01-12T07:23:37.037Z,11.37
2019-01-12T07:26:08.305Z,10.57
2019-01-12T07:28:39.588Z,10.97
2019-01-12T07:31:11.209Z,12.17
2019-01-12T07:33:42.518Z,12.30
2019-01-12T07:36:13.803Z,13.17
2019-01-12T07:38:46.418Z,14.00
2019-01-12T07:41:17.679Z,14.73
2019-01-12T07:43:48.955Z,17.13
2019-01-12T07:46:29.518Z,15.37
2019-01-12T07:49:00.698Z,17.87
2019-01-12T07:51:32.041Z,18.20
2019-01-12T07:54:03.254Z,16.43
2019-01-12T07:56:34.516Z,16.90
2019-01-12T07:59:05.679Z,16.27
2019-01-12T08:01:36.933Z,15.10
2019-01-12T08:04:08.134Z,17.80
2019-01-12T08:06:39.422Z,15.37
2019-01-12T08:09:11.525Z,16.27
2019-01-12T08:11:42.811Z,16.10
2019-01-12T08:14:14.015Z,15.10
2019-01-12T08:16:45.217Z,15.37
2019-01-12T08:19:16.507Z,16.63
2019-01-12T08:21:47.808Z,16.53
2019-01-12T08:24:18.962Z,14.43
2019-01-12T08:26:55.701Z,17.77
2019-01-12T08:29:26.953Z,16.50
2019-01-12T08:31:58.254Z,14.50
2019-01-12T08:34:29.556Z,14.13
2019-01-12T08:37:00.877Z,15.67
2019-01-12T08:39:32.188Z,14.70
2019-01-12T08:42:03.510Z,14.37
2019-01-12T08:44:34.819Z,16.53
2019-01-12T08:47:06.099Z,14.97
2019-01-12T08:49:37.373Z,13.53
2019-01-12T08:52:08.718Z,15.10
2019-01-12T08:54:40.062Z,15.60
2019-01-12T08:57:13.091Z,15.10
2019-01-12T08:59:44.356Z,16.77
2019-01-12T09:02:15.665Z,16.23
2019-01-12T09:04:46.954Z,14.70
2019-01-12T09:07:18.232Z,16.90
2019-01-12T09:09:49.510Z,16.20
2019-01-12T09:12:21.250Z,15.83
2019-01-12T09:14:52.529Z,15.57
2019-01-12T09:17:23.830Z,15.90
2019-01-12T09:19:55.277Z,14.67
2019-01-12T09:22:26.614Z,15.57
2019-01-12T09:24:57.891Z,16.30
2019-01-12T09:27:29.194Z,16.73
2019-01-12T09:30:00.787Z,16.33
2019-01-12T09:32:38.478Z,17.37
2019-01-12T09:35:10.180Z,16.20
2019-01-12T09:37:41.544Z,18.43
2019-01-12T09:40:16.226Z,16.97
2019-01-12T09:42:47.941Z,17.03
2019-01-12T09:45:20.335Z,18.63
2019-01-12T09:47:51.842Z,16.93
2019-01-12T09:50:24.441Z,16.60
2019-01-12T09:52:55.689Z,16.20
2019-01-12T09:55:26.930Z,17.43
2019-01-12T09:57:58.228Z,18.00
2019-01-12T10:00:29.829Z,16.77
2019-01-12T10:03:01.079Z,16.93
2019-01-12T10:05:32.257Z,15.67
2019-01-12T10:08:03.519Z,17.90
2019-01-12T10:10:34.712Z,14.67
2019-01-12T10:13:06.047Z,17.37
2019-01-12T10:15:37.301Z,17.80
2019-01-12T10:18:08.528Z,17.87
2019-01-12T10:20:39.934Z,19.77
2019-01-12T10:23:11.218Z,17.80
2019-01-12T10:25:42.493Z,17.53
2019-01-12T10:28:13.764Z,17.23
2019-01-12T10:30:44.958Z,18.70
2019-01-12T10:33:16.203Z,18.30
2019-01-12T10:35:47.498Z,18.37
2019-01-12T10:38:18.940Z,18.57
2019-01-12T10:40:50.152Z,18.77
2019-01-12T10:43:21.484Z,16.90
2019-01-12T10:45:52.798Z,19.00
2019-01-12T10:48:24.382Z,19.10
2019-01-12T10:50:55.721Z,17.83
2019-01-12T10:53:26.955Z,19.90
2019-01-12T10:55:58.250Z,18.73
2019-01-12T10:58:29.492Z,19.33
2019-01-12T11:01:00.754Z,19.03
2019-01-12T11:03:31.988Z,21.80
2019-01-12T11:06:03.298Z,19.80
2019-01-12T11:08:34.531Z,22.10
2019-01-12T11:11:06.050Z,21.77
2019-01-12T11:13:37.210Z,20.90
2019-01-12T11:16:08.612Z,22.87
2019-01-12T11:18:39.871Z,22.43
2019-01-12T11:21:11.115Z,24.40
2019-01-12T11:23:42.308Z,22.73
2019-01-12T11:26:13.524Z,23.77
2019-01-12T11:28:44.731Z,25.00
2019-01-12T11:31:19.761Z,23.43
2019-01-12T11:33:48.841Z,24.10
2019-01-12T11:36:20.188Z,24.03
2019-01-12T11:38:51.456Z,24.83
2019-01-12T11:41:22.635Z,24.33
2019-01-12T11:43:53.778Z,22.57
2019-01-12T11:46:24.953Z,23.00
2019-01-12T11:48:56.273Z,22.60
2019-01-12T11:51:27.523Z,22.07
2019-01-12T11:53:58.744Z,22.47
2019-01-12T11:56:30.033Z,21.73
2019-01-12T11:59:01.316Z,21.13
2019-01-12T12:01:32.587Z,22.00
2019-01-12T12:04:03.847Z,22.20
2019-01-12T12:06:35.188Z,23.13
2019-01-12T12:09:09.390Z,22.77
2019-01-12T12:11:40.659Z,24.03
2019-01-12T12:14:11.818Z,21.53
2019-01-12T12:16:43.041Z,22.83
2019-01-12T12:19:14.242Z,21.23
2019-01-12T12:21:45.670Z,21.73
2019-01-12T12:24:16.920Z,23.20
2019-01-12T12:26:48.117Z,20.40
2019-01-12T12:29:19.356Z,22.30
2019-01-12T12:31:50.623Z,22.20
2019-01-12T12:34:21.778Z,23.00
2019-01-12T12:36:53.183Z,22.30
2019-01-12T12:39:24.597Z,21.20
2019-01-12T12:41:55.873Z,22.30
2019-01-12T12:44:27.153Z,24.87
2019-01-12T12:46:58.703Z,22.17
2019-01-12T12:49:30.024Z,21.33
2019-01-12T12:52:01.388Z,21.00
2019-01-12T12:54:32.646Z,21.40
2019-01-12T12:57:03.856Z,20.77
2019-01-12T12:59:35.130Z,21.63
2019-01-12T13:02:06.381Z,21.23
2019-01-12T13:04:37.673Z,23.23
2019-01-12T13:07:08.929Z,24.17
2019-01-12T13:09:40.313Z,22.67
2019-01-12T13:12:12.203Z,23.17
2019-01-12T13:14:43.444Z,24.67
2019-01-12T13:17:14.983Z,23.33
2019-01-12T13:19:46.589Z,22.87
2019-01-12T13:22:17.924Z,22.70
2019-01-12T13:24:49.190Z,24.00
2019-01-12T13:27:20.484Z,22.10
2019-01-12T13:29:51.855Z,21.27
2019-01-12T13:32:23.251Z,22.20
2019-01-12T13:34:54.590Z,23.00
2019-01-12T13:37:25.797Z,18.57
2019-01-12T13:39:56.993Z,21.60
2019-01-12T13:42:28.352Z,20.53
2019-01-12T13:44:59.616Z,20.03
2019-01-12T13:47:30.895Z,19.53
2019-01-12T13:50:02.139Z,16.67
2019-01-12T13:52:33.395Z,17.23
2019-01-12T13:55:05.514Z,16.50
2019-01-12T13:57:37.105Z,15.43
2019-01-12T14:00:31.995Z,17.57
2019-01-12T14:03:03.478Z,16.90
2019-01-12T14:05:34.983Z,17.10
2019-01-12T14:08:08.062Z,16.20
2019-01-12T14:10:39.392Z,16.27
2019-01-12T14:13:11.051Z,15.57
2019-01-12T14:15:42.654Z,13.70
2019-01-12T14:18:13.969Z,12.90
2019-01-12T14:20:45.400Z,13.53
2019-01-12T14:23:20.820Z,15.20
2019-01-12T14:25:52.174Z,13.17
2019-01-12T14:28:23.411Z,14.57
2019-01-12T14:30:55.287Z,14.53
2019-01-12T14:33:26.533Z,13.57
2019-01-12T14:35:57.820Z,14.90
2019-01-12T14:38:29.096Z,12.60
2019-01-12T14:41:00.373Z,13.03
2019-01-12T14:43:31.700Z,12.03
2019-01-12T14:46:03.074Z,10.70
2019-01-12T14:48:34.367Z,9.73
2019-01-12T14:51:07.260Z,11.70
2019-01-12T14:53:38.748Z,11.30
2019-01-12T14:56:10.103Z,10.03
2019-01-12T14:58:41.427Z,10.10
2019-01-12T15:01:12.716Z,8.80
2019-01-12T15:03:43.938Z,11.63
2019-01-12T15:06:15.632Z,9.60
2019-01-12T15:08:47.018Z,12.27
2019-01-12T15:11:18.347Z,13.97
2019-01-12T15:13:49.578Z,13.40
2019-01-12T15:16:20.760Z,13.70
2019-01-12T15:18:52.019Z,16.37
2019-01-12T15:21:23.370Z,17.90
2019-01-12T15:23:54.750Z,16.40
2019-01-12T15:26:25.961Z,16.23
2019-01-12T15:28:57.291Z,15.70
2019-01-12T15:31:28.614Z,16.50
2019-01-12T15:33:59.831Z,16.13
2019-01-12T15:36:31.114Z,16.40
2019-01-12T15:39:02.370Z,14.83
2019-01-12T15:41:33.611Z,14.80
2019-01-12T15:44:04.993Z,15.00
2019-01-12T15:46:36.228Z,16.63
2019-01-12T15:49:07.694Z,14.53
2019-01-12T15:51:38.929Z,15.50
2019-01-12T15:54:10.202Z,14.50
2019-01-12T15:56:41.480Z,13.57
2019-01-12T15:59:12.820Z,11.60
2019-01-12T16:01:44.038Z,9.03
2019-01-12T16:04:15.320Z,9.50
2019-01-12T16:06:46.479Z,7.53
2019-01-12T16:11:52.819Z,8.63
2019-01-12T16:14:23.979Z,9.27
2019-01-12T16:16:55.146Z,8.67
2019-01-12T16:19:26.388Z,7.47
2019-01-12T16:21:57.626Z,9.07
2019-01-12T16:24:28.784Z,9.73
2019-01-12T16:27:00.291Z,9.97
2019-01-12T16:29:31.519Z,11.47
2019-01-12T16:32:06.075Z,16.07
2019-01-12T16:34:37.358Z,16.83
2019-01-12T16:37:08.613Z,12.80
2019-01-12T16:39:39.774Z,12.23
2019-01-12T16:42:10.973Z,11.70
2019-01-12T16:44:42.268Z,12.17
2019-01-12T16:47:13.489Z,10.30
2019-01-12T16:49:45.460Z,11.13
2019-01-12T16:52:17.197Z,9.93
2019-01-12T16:54:52.291Z,11.90
2019-01-12T16:57:24.727Z,11.87
2019-01-12T17:00:10.246Z,13.13
2019-01-12T17:02:45.253Z,15.10
2019-01-12T17:05:20.114Z,34.13
2019-01-12T17:07:52.176Z,16.67
2019-01-12T17:10:28.408Z,32.00
2019-01-12T17:13:00.464Z,17.57
2019-01-12T17:15:41.843Z,12.30
2019-01-12T17:20:48.885Z,12.07
2019-01-12T17:23:22.043Z,12.37
2019-01-12T17:26:00.741Z,12.60
2019-01-12T17:28:37.221Z,11.27
2019-01-12T17:31:05.045Z,10.70
2019-01-12T17:33:36.563Z,12.27
2019-01-12T17:36:08.593Z,11.03
2019-01-12T17:38:39.817Z,10.83
2019-01-12T17:41:11.051Z,21.27
2019-01-12T17:43:42.485Z,20.60
2019-01-12T17:46:14.251Z,16.87
2019-01-12T17:48:45.503Z,17.43
2019-01-12T17:51:16.948Z,16.77
2019-01-12T17:53:48.386Z,14.67
2019-01-12T17:56:19.808Z,14.63
2019-01-12T17:58:51.794Z,12.33
2019-01-12T18:01:23.076Z,12.10
2019-01-12T18:03:58.316Z,10.30
2019-01-12T18:06:29.613Z,12.87
2019-01-12T18:09:01.825Z,9.53
2019-01-12T18:11:33.071Z,10.80
2019-01-12T18:14:04.742Z,9.80
2019-01-12T18:16:36.023Z,7.70
2019-01-12T18:19:07.164Z,8.63
2019-01-12T18:21:38.463Z,8.50
2019-01-12T18:24:09.677Z,8.00
2019-01-12T18:26:41.218Z,6.07
2019-01-12T18:29:19.249Z,6.60
2019-01-12T18:31:50.533Z,6.77
2019-01-12T18:34:21.781Z,7.80
2019-01-12T18:36:53.052Z,6.47
2019-01-12T18:39:30.621Z,7.80
2019-01-12T18:42:04.752Z,7.30
2019-01-12T18:44:35.964Z,9.70
2019-01-12T18:47:07.373Z,12.40
2019-01-12T18:49:38.677Z,14.57
2019-01-12T18:52:10.050Z,13.77
2019-01-12T18:54:41.306Z,11.33
2019-01-12T18:57:12.546Z,8.63
2019-01-12T18:59:43.809Z,10.90
2019-01-12T19:02:15.114Z,8.50
2019-01-12T19:04:46.361Z,10.10
2019-01-12T19:07:17.579Z,10.20
2019-01-12T19:09:48.902Z,8.60
2019-01-12T19:12:20.233Z,9.53
2019-01-12T19:14:51.510Z,9.23
2019-01-12T19:17:25.951Z,9.13
2019-01-12T19:19:57.272Z,8.90
2019-01-12T19:22:28.616Z,9.10
2019-01-12T19:24:59.929Z,9.17
2019-01-12T19:27:31.174Z,10.00
2019-01-12T19:30:02.463Z,7.20
2019-01-12T19:32:33.701Z,6.90
2019-01-12T19:35:05.233Z,7.00
2019-01-12T19:37:36.534Z,7.93
2019-01-12T19:40:12.610Z,8.63
2019-01-12T19:42:43.879Z,8.77
2019-01-12T19:45:16.593Z,8.07
2019-01-12T19:47:47.869Z,6.73
2019-01-12T19:50:22.685Z,5.80
2019-01-12T19:52:54.052Z,7.80
2019-01-12T19:55:25.414Z,6.07
2019-01-12T19:57:56.681Z,5.67
2019-01-12T20:00:37.348Z,4.17
2019-01-12T20:03:08.608Z,3.27
2019-01-12T20:05:39.851Z,4.73
2019-01-12T20:08:11.130Z,5.00
2019-01-12T20:10:42.429Z,5.00
2019-01-12T20:13:13.650Z,4.00
2019-01-12T20:15:44.868Z,4.63
2019-01-12T20:18:16.086Z,4.40
2019-01-12T20:20:47.347Z,5.40
2019-01-12T20:23:18.550Z,4.30
2019-01-12T20:25:49.818Z,4.87
2019-01-12T20:28:22.691Z,5.60
2019-01-12T20:32:08.579Z,7.33
2019-01-12T20:35:19.888Z,6.70
2019-01-12T20:38:49.632Z,7.77
2019-01-12T20:42:22.419Z,8.10
2019-01-12T20:45:28.729Z,8.07
2019-01-12T20:48:48.796Z,7.40
2019-01-12T20:52:31.684Z,9.37
2019-01-12T20:56:16.940Z,8.70
2019-01-12T20:59:58.782Z,7.27
2019-01-12T21:03:00.713Z,11.43
2019-01-12T21:06:07.449Z,9.80
2019-01-12T21:09:16.988Z,8.57
2019-01-12T21:13:11.700Z,7.60
2019-01-12T21:15:58.182Z,7.67
2019-01-12T21:18:29.435Z,6.30
2019-01-12T21:21:01.055Z,8.13
2019-01-12T21:23:32.473Z,6.80
2019-01-12T21:26:03.784Z,6.10
2019-01-12T21:28:35.126Z,7.33
2019-01-12T21:31:06.382Z,6.40
2019-01-12T21:33:37.728Z,6.80
2019-01-12T21:36:08.879Z,7.10
2019-01-12T21:38:40.207Z,8.00
2019-01-12T21:41:11.452Z,8.57
2019-01-12T21:43:42.688Z,7.83
2019-01-12T21:46:13.962Z,9.20
2019-01-12T21:48:45.292Z,8.10
2019-01-12T21:51:16.530Z,9.10
2019-01-12T21:53:47.818Z,7.67
2019-01-12T21:56:19.007Z,8.30
2019-01-12T21:58:54.631Z,8.30
2019-01-12T22:01:25.900Z,11.53
2019-01-12T22:03:57.172Z,10.50
2019-01-12T22:06:28.430Z,11.20
2019-01-12T22:08:59.714Z,10.90
2019-01-12T22:11:30.823Z,9.67
2019-01-12T22:14:02.351Z,10.93
2019-01-12T22:16:33.516Z,9.27
2019-01-12T22:19:04.806Z,13.10
2019-01-12T22:21:36.119Z,10.20
2019-01-12T22:24:07.470Z,10.37
2019-01-12T22:26:38.780Z,10.47
2019-01-12T22:29:10.058Z,10.80
2019-01-12T22:31:41.355Z,9.53
2019-01-12T22:34:12.537Z,10.37
2019-01-12T22:36:43.832Z,10.37
2019-01-12T22:39:15.118Z,9.53
2019-01-12T22:41:46.354Z,11.27
2019-01-12T22:44:17.688Z,14.40
2019-01-12T22:46:48.951Z,18.47
2019-01-12T22:49:20.143Z,17.00
2019-01-12T22:51:51.391Z,18.60
2019-01-12T22:54:22.559Z,16.43
2019-01-12T22:56:53.922Z,14.20
2019-01-12T22:59:25.274Z,13.87
2019-01-12T23:02:09.368Z,12.10
2019-01-12T23:04:40.639Z,11.93
2019-01-12T23:07:12.235Z,11.20
2019-01-12T23:09:43.697Z,12.30
2019-01-12T23:12:15.045Z,12.00
2019-01-12T23:14:46.400Z,13.17
2019-01-12T23:17:17.797Z,12.23
2019-01-12T23:19:49.197Z,12.23
2019-01-12T23:22:20.391Z,13.57
2019-01-12T23:24:51.656Z,13.80
2019-01-12T23:27:22.919Z,14.13
2019-01-12T23:29:54.123Z,14.30
2019-01-12T23:32:25.424Z,11.57
2019-01-12T23:34:56.672Z,11.60
2019-01-12T23:37:28.917Z,12.83
2019-01-12T23:40:00.244Z,11.30
2019-01-12T23:42:31.578Z,10.90
2019-01-12T23:45:02.890Z,11.77
2019-01-12T23:47:34.259Z,13.00
2019-01-12T23:50:06.048Z,12.27
2019-01-12T23:52:37.362Z,11.40
2019-01-12T23:55:09.701Z,11.37
2019-01-12T23:57:41.411Z,11.80
